LIPXLIMJ

Guest
Details From LIPX - VILLAFRANCA
To LIMJ - Genova Sestri
Flight Number -
Tags decoded
Created
Modified
Stats Distance 119 nm / 220 km
Max Altitude 0 ft / 0 m
Waypoints 6
Social Downloads 1
Likes 0
Share VATSIM

Download

Looking for another format? Having issues loading an existing format? Contact us
Advertisement - Login to hide

Notes

Requested: LIPX GAZ PAR KALIK RIVAP LIMJ

Route

LIPX GAZ PAR KALIK RIVAP LIMJ

ID Type Via Altitude Latitude Longitude Leg Dist Tot Dist Heading (true) Name
O LIPX APT - 0 ft / 0 m 45.39694˚ 10.89042˚ - 0 nm - VILLAFRANCA
GAZ NDB - 0 ft / 0 m 45.20169˚ 10.60414˚ 16 nm 16 nm 226° / 226° GAZOLDO NDB
PAR NDB - 0 ft / 0 m 44.82229˚ 10.29327˚ 26 nm 43 nm 210° / 210° PARMA NDB
KALIK FIX - 0 ft / 0 m 44.46833˚ 9.84806˚ 28 nm 71 nm 222° / 222° -
RIVAP FIX - 0 ft / 0 m 44.28333˚ 9.34889˚ 24 nm 95 nm 243° / 242° -
O LIMJ APT - 0 ft / 0 m 44.41196˚ 8.84187˚ 23 nm 118 nm 290° / 289° Genova Sestri

Altitude Profile

Advertisement - Login to hide

LIPX

Details ICAO LIPX (VRN)
Name VILLAFRANCA
Region Italy
Timezone Europe/Rome (UTC+1.0)
Stats Elevation 239 ft / 73 m (AMSL)
Location 45.396942° 10.890418°
Runways 1
Magnetic Variation 2.862° E

METAR

LIPX 180120Z 23002KT CAVOK M03/M04 Q1023

Decode

TAF

Not found

Departure Runways

ID Width Length Bearing (true) Bearing (mag) Surface Threshold Offset Overrun Length
04 148 ft / 45 m 10,072 ft / 3,070 m 45.79° 42.93° Asphalt 189 ft / 58 m 815 ft / 248 m
22 148 ft / 45 m 10,072 ft / 3,070 m 225.81° 222.95° Asphalt 1,345 ft / 410 m 189 ft / 58 m

LIMJ

Details ICAO LIMJ (GOA)
Name Genova Sestri
Region Italy
Timezone Unknown (UTC+0.0)
Stats Elevation 13 ft / 4 m (AMSL)
Location 44.411957° 8.841866°
Runways 1
Magnetic Variation 2.389° E

METAR

LIMJ 180120Z 10004KT CAVOK 05/M10 Q1024

Decode

TAF

TAF LIMJ 172300Z 1800/1824 02010KT CAVOK TEMPO 1812/1818 VRB05KT DZ BKN014

Decode

Destination Runways

ID Width Length Bearing (true) Bearing (mag) Surface Threshold Offset Overrun Length
10 148 ft / 45 m 9,574 ft / 2,918 m 105.39° 103.00° Asphalt 0 ft / 0 m 0 ft / 0 m
28 148 ft / 45 m 9,574 ft / 2,918 m 285.41° 283.02° Asphalt 538 ft / 164 m 0 ft / 0 m

Approach Navaids

Runway Type Ident Frequency Range Bearing (true) Bearing (mag) Slope Elevation
28 Localiser GSE 109.30 MHz 18 nm / 33 km 287.30° 284.91° - 9 ft / 3 m (AMSL)
28 Glidescope GSE 109.30 MHz 10 nm / 19 km 287.30° 284.91° 3.17° 26 ft / 8 m (AMSL)
28 DME GSE 109.30 MHz 18 nm / 33 km - - - 26 ft / 8 m (AMSL)

Popular Alternatives